Flight Track Log - Related Links

Times and Time Zones

All times are in EST time to prevent confusion due to time zone crossing. See the AAY894 flight status page for this flight to view local times or setup timezone preferences in your user account.

Time Position Orientation Groundspeed Altitude Reporting Facility
EST Latitude Longitude Course Direction KTS MPH feet Rate Location/Type
Thu 08:20:43 AM 27.9333 -82.6833 North 167 192 800  Level Tampa TRACON
Thu 08:21:55 AM 27.9833 -82.6667 16° North 239 275 2,700 1,977 Climbing Tampa TRACON
Thu 08:23:36 AM 28.1017 -82.6267 17° North 280 322 6,500 2,311 Climbing Jacksonville Center
Thu 08:24:36 AM 28.1831 -82.6031 14° North 290 334 8,900 2,250 Climbing Jacksonville Center
Thu 08:25:36 AM 28.2664 -82.5886 North 297 342 11,000 1,500 Climbing Jacksonville Center
Thu 08:26:00 AM 28.6174 -82.6475 North  Level FlightAware Approximate
Thu 08:26:36 AM 28.3667 -82.5742 North 321 369 11,900  Level Jacksonville Center
Thu 08:27:36 AM 28.4792 -82.5644 North 367 422 13,800 2,100 Climbing Jacksonville Center
Thu 08:28:36 AM 28.5919 -82.5686 358° North 391 450 16,100 2,100 Climbing Jacksonville Center
Thu 08:29:36 AM 28.7172 -82.5658 North 402 463 18,000 1,750 Climbing Jacksonville Center
Thu 08:30:36 AM 28.8403 -82.5656 360° North 412 474 19,600 1,550 Climbing Jacksonville Center
Thu 08:31:36 AM 28.9592 -82.5817 353° North 424 488 21,100 1,300 Climbing Jacksonville Center
Thu 08:32:36 AM 29.0825 -82.6003 352° North 430 495 22,200 1,050 Climbing Jacksonville Center
Thu 08:33:36 AM 29.2078 -82.6167 353° North 440 506 23,200 1,000 Climbing Jacksonville Center
Thu 08:34:36 AM 29.3225 -82.6306 354° North 457 526 24,200 1,000 Climbing Jacksonville Center
Thu 08:35:36 AM 29.4500 -82.6444 355° North 463 533 25,200 1,050 Climbing Jacksonville Center
Thu 08:36:36 AM 29.5772 -82.6561 355° North 463 533 26,300 950 Climbing Jacksonville Center
Thu 08:37:36 AM 29.7067 -82.6583 359° North 463 533 27,100 650 Climbing Jacksonville Center
Thu 08:38:36 AM 29.8383 -82.6458 North 463 533 27,600 600 Climbing Jacksonville Center
Thu 08:39:36 AM 29.9719 -82.6361 North 463 533 28,300 750 Climbing Jacksonville Center
Thu 08:40:36 AM 30.1033 -82.6261 North 469 540 29,100 650 Climbing Jacksonville Center
Thu 08:41:36 AM 30.2350 -82.6136 North 469 540 29,600 500 Climbing Jacksonville Center
Thu 08:42:36 AM 30.3664 -82.6036 North 474 545 30,100 500 Climbing Jacksonville Center
Thu 08:43:36 AM 30.5022 -82.5936 North 479 551 30,600 400 Climbing Jacksonville Center
Thu 08:44:36 AM 30.6378 -82.5811 North 479 551 30,900 550 Climbing Jacksonville Center
Thu 08:45:36 AM 30.7692 -82.5686 North 479 551 31,700 700 Climbing Jacksonville Center
Thu 08:46:36 AM 30.9008 -82.5583 North 479 551 32,300 350 Climbing Jacksonville Center
Thu 08:47:36 AM 31.0303 -82.5458 North 474 545 32,400 100 Climbing Jacksonville Center
Thu 08:48:36 AM 31.1658 -82.5356 North 474 545 32,500 150 Climbing Jacksonville Center
Thu 08:49:36 AM 31.2975 -82.5278 North 479 551 32,700 250 Climbing Jacksonville Center
Thu 08:50:36 AM 31.4289 -82.5153 North 479 551 33,000 87 Climbing Jacksonville Center
Thu 08:53:03 AM 31.7492 -82.4758 North 454 522 33,000  Level Atlanta Center
Thu 08:54:03 AM 31.8847 -82.4539 North 459 528 33,000  Level Atlanta Center
Thu 08:55:03 AM 32.0136 -82.4319 North 464 534 33,000  Level Atlanta Center
Thu 08:56:03 AM 32.1450 -82.4125 North 469 540 33,000  Level Atlanta Center
Thu 08:57:03 AM 32.2719 -82.3906 North 463 533 33,000  Level Atlanta Center
Thu 08:58:03 AM 32.3992 -82.3708 North 457 526 33,000  Level Atlanta Center
Thu 08:59:03 AM 32.5281 -82.3514 North 462 532 33,000  Level Atlanta Center
Thu 09:00:03 AM 32.6594 -82.3314 North 462 532 33,000  Level Atlanta Center
Thu 09:01:03 AM 32.7864 -82.3092 North 467 537 33,000  Level Atlanta Center
Thu 09:02:03 AM 32.9197 -82.2892 North 461 531 33,000  Level Atlanta Center
Thu 09:03:03 AM 33.0489 -82.2694 North 461 531 33,000  Level Atlanta Center
Thu 09:04:03 AM 33.1925 -82.2442 North 461 531 33,000  Level Atlanta Center
Thu 09:05:03 AM 33.3194 -82.2242 North 470 541 33,000  Level Atlanta Center
Thu 09:06:03 AM 33.4467 -82.2014 North 465 535 33,000  Level Atlanta Center
Thu 09:07:03 AM 33.5714 -82.1839 North 465 535 33,000  Level Atlanta Center
Thu 09:08:03 AM 33.6986 -82.1611 North 465 535 33,000  Level Atlanta Center
Thu 09:09:03 AM 33.8297 -82.1383 North 465 535 33,000  Level Atlanta Center
Thu 09:10:03 AM 33.9567 -82.1178 North 465 535 33,000  Level Atlanta Center
Thu 09:11:03 AM 34.0836 -82.0950 North 465 535 33,000  Level Atlanta Center
Thu 09:12:03 AM 34.2000 -82.0747 North 465 535 33,000  Level Atlanta Center
Thu 09:13:03 AM 34.3269 -82.0517 North 458 527 33,000  Level Atlanta Center
Thu 09:14:03 AM 34.4519 -82.0311 North 458 527 33,000  Level Atlanta Center
Thu 09:15:03 AM 34.5808 -82.0078 North 464 534 33,000  Level Atlanta Center
Thu 09:16:03 AM 34.7058 -81.9869 North 459 528 33,000  Level Atlanta Center
Thu 09:17:03 AM 34.8328 -81.9636 North 459 528 33,000  Level Atlanta Center
Thu 09:18:03 AM 34.9575 -81.9403 North 459 528 33,000  Level Atlanta Center
Thu 09:19:03 AM 35.0803 -81.9144 10° North 459 528 33,000  Level Atlanta Center
Thu 09:20:03 AM 35.2069 -81.8833 11° North 454 522 33,000  Level Atlanta Center
Thu 09:21:03 AM 35.3272 -81.8444 15° North 454 522 33,000  Level Atlanta Center
Thu 09:22:03 AM 35.4539 -81.8106 12° North 449 517 33,000  Level Atlanta Center
Thu 09:23:03 AM 35.5783 -81.7739 13° North 459 528 33,000  Level Atlanta Center
Thu 09:24:03 AM 35.7028 -81.7347 14° North 459 528 33,000  Level Atlanta Center
Thu 09:25:03 AM 35.8233 -81.7006 13° North 447 514 33,000  Level Atlanta Center
Thu 09:26:03 AM 35.9456 -81.6661 13° North 447 514 33,000  Level Atlanta Center
Thu 09:27:03 AM 36.0681 -81.6292 14° North 447 514 33,000  Level Atlanta Center
Thu 09:29:16 AM 36.3542 -81.5469 13° North 451 519 33,000  Level Indianapolis Center
Thu 09:30:18 AM 36.4756 -81.5111 13° North 451 519 33,000  Level Indianapolis Center
Thu 09:31:20 AM 36.5983 -81.4756 13° North 452 520 33,000  Level Indianapolis Center
Thu 09:32:22 AM 36.7200 -81.4394 13° North 454 522 33,000  Level Indianapolis Center
Thu 09:33:23 AM 36.8436 -81.4028 13° North 458 527 33,000  Level Indianapolis Center
Thu 09:34:25 AM 36.9906 -81.3597 13° North 460 529 33,000  Level Indianapolis Center
Thu 09:35:27 AM 37.1194 -81.3208 14° North 460 529 33,000  Level Indianapolis Center
Thu 09:36:29 AM 37.2433 -81.2836 13° North 459 528 33,000  Level Indianapolis Center
Thu 09:37:31 AM 37.3522 -81.2514 13° North 454 522 33,000  Level Indianapolis Center
Thu 09:38:33 AM 37.4908 -81.2106 13° North 441 507 33,000  Level Indianapolis Center
Thu 09:39:35 AM 37.6103 -81.1747 13° North 444 511 33,000  Level Indianapolis Center
Thu 09:40:37 AM 37.7294 -81.1386 13° North 448 516 33,000  Level Indianapolis Center
Thu 09:41:39 AM 37.8575 -81.1006 13° North 448 516 33,000  Level Indianapolis Center
Thu 09:42:41 AM 37.9761 -81.0667 13° North 443 510 33,000  Level Indianapolis Center
Thu 09:43:43 AM 38.0956 -81.0319 13° North 441 507 33,000  Level Indianapolis Center
Thu 09:44:45 AM 38.2361 -80.9908 13° North 436 502 33,000  Level Indianapolis Center
Thu 09:45:47 AM 38.3553 -80.9561 13° North 436 502 33,000  Level Indianapolis Center
Thu 09:46:49 AM 38.4744 -80.9208 13° North 437 503 33,000  Level Indianapolis Center
Thu 09:47:52 AM 38.5939 -80.8864 13° North 438 504 33,000  Level Indianapolis Center
Thu 09:48:54 AM 38.7150 -80.8514 13° North 442 509 33,000  Level Indianapolis Center
Thu 09:49:56 AM 38.8597 -80.8075 13° North 447 514 33,000  Level Indianapolis Center
Thu 09:50:58 AM 38.9811 -80.7714 13° North 447 514 33,000  Level Indianapolis Center
Thu 09:52:00 AM 39.1042 -80.7333 13° North 451 519 33,000  Level Indianapolis Center
Thu 09:53:02 AM 39.2258 -80.6969 13° North 451 519 33,000  Level Indianapolis Center
Thu 09:54:04 AM 39.3456 -80.6619 13° North 446 513 33,000  Level Indianapolis Center
Thu 09:55:06 AM 39.4653 -80.6294 12° North 444 511 33,000  Level Indianapolis Center
Thu 09:56:08 AM 39.6067 -80.5858 13° North 438 504 33,000  Level Indianapolis Center
Thu 09:57:10 AM 39.7233 -80.5411 16° North 438 504 33,000  Level Indianapolis Center
Thu 09:58:12 AM 39.8392 -80.4878 19° North 438 504 33,000  Level Indianapolis Center
Thu 09:59:14 AM 39.9586 -80.4344 19° North 439 505 33,000  Level Indianapolis Center
Thu 10:00:16 AM 40.0758 -80.3844 18° North 439 505 33,000  Level Indianapolis Center
Thu 10:01:18 AM 40.1881 -80.3322 20° North 439 505 33,000  Level Indianapolis Center
Thu 10:02:21 AM 40.3097 -80.2806 18° North 439 505 33,000 -131 Level Indianapolis Center
Thu 10:03:35 AM 40.4683 -80.2103 19° North 429 494 32,700 -397 Descending Cleveland Center
Thu 10:04:37 AM 40.5858 -80.1553 20° North 451 519 32,100 -532 Descending Cleveland Center
Thu 10:05:39 AM 40.7022 -80.1022 19° North 444 511 31,600 -484 Descending Cleveland Center
Thu 10:06:41 AM 40.8181 -80.0486 19° North 443 510 31,100 -439 Descending Cleveland Center
Thu 10:07:42 AM 40.9256 -79.9989 19° North 443 510 30,700 -488 Descending Cleveland Center
Thu 10:08:44 AM 41.0619 -79.9367 19° North 436 502 30,100 -484 Descending Cleveland Center
Thu 10:09:46 AM 41.1622 -79.8919 19° North 433 498 29,700 -532 Descending Cleveland Center
Thu 10:10:48 AM 41.2964 -79.8306 19° North 427 491 29,000 -581 Descending Cleveland Center
Thu 10:11:50 AM 41.4094 -79.7789 19° North 427 491 28,500 -435 Descending Cleveland Center
Thu 10:12:52 AM 41.5200 -79.7283 19° North 422 486 28,100 -390 Descending Cleveland Center
Thu 10:13:53 AM 41.6336 -79.6756 19° North 429 494 27,700 -537 Descending Cleveland Center
Thu 10:14:55 AM 41.7442 -79.6244 19° North 424 488 27,000 -1,258 Descending Cleveland Center
Thu 10:15:57 AM 41.8536 -79.5731 19° North 420 483 25,100 -2,371 Descending Cleveland Center
Thu 10:16:59 AM 41.9633 -79.5222 19° North 416 479 22,100 -2,927 Descending Cleveland Center
Thu 10:18:00 AM 42.0936 -79.4594 20° North 416 479 19,100 -2,829 Descending Cleveland Center
Thu 10:19:02 AM 42.1975 -79.4111 19° North 401 461 16,300 -2,661 Descending Cleveland Center
Thu 10:20:04 AM 42.2986 -79.3647 19° North 387 445 13,600 -2,468 Descending Cleveland Center
Thu 10:21:06 AM 42.3969 -79.3169 20° North 378 435 11,200 -1,268 Descending Cleveland Center
Thu 10:22:07 AM 42.4947 -79.2722 19° North 360 414 11,000 -98 Descending Cleveland Center
Thu 10:23:09 AM 42.5881 -79.2300 18° North 354 407 11,000 -532 Level Cleveland Center
Thu 10:24:11 AM 42.6881 -79.1842 19° North 343 395 9,900 -1,113 Descending Cleveland Center
Thu 10:25:13 AM 42.7625 -79.1244 30° Northeast 314 361 8,700 -1,317 Descending Cleveland Center
Thu 10:26:14 AM 42.8194 -79.0475 45° Northeast 305 351 7,200 -829 Descending Cleveland Center
Thu 10:27:16 AM 42.8792 -78.9664 45° Northeast 297 342 7,000 -435 Descending Cleveland Center
Thu 10:28:18 AM 42.9378 -78.8861 45° Northeast 290 334 6,300 -1,038 Descending Cleveland Center
Thu 10:29:00 AM 42.9833 -78.8333 40° Northeast 277 319 5,200 -1,000 Descending Buffalo TRACON
Thu 10:30:00 AM 43.0167 -78.7667 56° Northeast 230 265 4,600 -650 Descending Buffalo TRACON
Thu 10:31:00 AM 43.0667 -78.7167 36° Northeast 194 223 3,900 -650 Descending Buffalo TRACON
Thu 10:32:00 AM 43.1000 -78.7333 340° North 133 153 3,300 -850 Descending Buffalo TRACON
Thu 10:33:00 AM 43.1167 -78.8000 289° West 152 175 2,200 -750 Descending Buffalo TRACON
Thu 10:34:00 AM 43.1167 -78.8500 270° West 111 128 1,800 -550 Descending Buffalo TRACON
Thu 10:35:00 AM 43.1167 -78.8833 270° West 119 137 1,100 -264 Descending Buffalo TRACON
Thu 10:35:31 AM 43.1086 -78.9064 244° Southwest 122 140 1,400 581 Climbing Cleveland Center

Login

Don't have an account? Register now (free) for customized features, flight alerts, and more!